sensor_id;sensor_type;location;lat;lon;timestamp;P1;durP1;ratioP1;P2;durP2;ratioP2
40459;SDS011;26164;51.138;16.952;2023-10-13T00:01:48;23.95;;;9.90;;
40459;SDS011;26164;51.138;16.952;2023-10-13T00:04:17;18.92;;;9.00;;
40459;SDS011;26164;51.138;16.952;2023-10-13T00:06:48;20.20;;;9.48;;
40459;SDS011;26164;51.138;16.952;2023-10-13T00:09:14;19.40;;;9.32;;
40459;SDS011;26164;51.138;16.952;2023-10-13T00:11:41;21.15;;;9.57;;
40459;SDS011;26164;51.138;16.952;2023-10-13T00:14:11;19.83;;;10.40;;
40459;SDS011;26164;51.138;16.952;2023-10-13T00:16:42;20.90;;;9.75;;
40459;SDS011;26164;51.138;16.952;2023-10-13T00:19:27;20.42;;;9.93;;
40459;SDS011;26164;51.138;16.952;2023-10-13T00:22:05;19.88;;;9.40;;
40459;SDS011;26164;51.138;16.952;2023-10-13T00:24:35;19.40;;;9.75;;
40459;SDS011;26164;51.138;16.952;2023-10-13T00:27:10;22.02;;;9.82;;
40459;SDS011;26164;51.138;16.952;2023-10-13T00:30:00;22.38;;;9.23;;
40459;SDS011;26164;51.138;16.952;2023-10-13T00:32:48;19.15;;;9.18;;
40459;SDS011;26164;51.138;16.952;2023-10-13T00:35:22;18.63;;;9.07;;
40459;SDS011;26164;51.138;16.952;2023-10-13T00:37:57;18.40;;;8.93;;
40459;SDS011;26164;51.138;16.952;2023-10-13T00:40:29;24.20;;;9.55;;
40459;SDS011;26164;51.138;16.952;2023-10-13T00:42:58;19.35;;;9.68;;
40459;SDS011;26164;51.138;16.952;2023-10-13T00:45:43;24.17;;;10.18;;
40459;SDS011;26164;51.138;16.952;2023-10-13T00:48:11;21.05;;;10.20;;
40459;SDS011;26164;51.138;16.952;2023-10-13T00:50:38;20.40;;;10.32;;
40459;SDS011;26164;51.138;16.952;2023-10-13T00:53:04;20.45;;;10.23;;
40459;SDS011;26164;51.138;16.952;2023-10-13T00:55:30;22.10;;;10.00;;
40459;SDS011;26164;51.138;16.952;2023-10-13T00:57:59;19.05;;;9.88;;
40459;SDS011;26164;51.138;16.952;2023-10-13T01:00:29;17.70;;;9.73;;
40459;SDS011;26164;51.138;16.952;2023-10-13T01:02:56;19.25;;;9.88;;
40459;SDS011;26164;51.138;16.952;2023-10-13T01:05:22;21.35;;;9.55;;
40459;SDS011;26164;51.138;16.952;2023-10-13T01:07:49;20.95;;;9.68;;
40459;SDS011;26164;51.138;16.952;2023-10-13T01:10:20;18.65;;;10.10;;
40459;SDS011;26164;51.138;16.952;2023-10-13T01:12:51;20.98;;;9.63;;
40459;SDS011;26164;51.138;16.952;2023-10-13T01:15:18;19.67;;;9.00;;
40459;SDS011;26164;51.138;16.952;2023-10-13T01:17:47;15.55;;;8.68;;
40459;SDS011;26164;51.138;16.952;2023-10-13T01:20:16;20.30;;;9.60;;
40459;SDS011;26164;51.138;16.952;2023-10-13T01:22:52;21.73;;;9.55;;
40459;SDS011;26164;51.138;16.952;2023-10-13T01:25:22;19.92;;;9.45;;
40459;SDS011;26164;51.138;16.952;2023-10-13T01:27:54;19.98;;;10.38;;
40459;SDS011;26164;51.138;16.952;2023-10-13T01:30:20;21.55;;;9.63;;
40459;SDS011;26164;51.138;16.952;2023-10-13T01:32:52;23.73;;;10.27;;
40459;SDS011;26164;51.138;16.952;2023-10-13T01:35:25;25.60;;;9.85;;
40459;SDS011;26164;51.138;16.952;2023-10-13T01:38:01;19.02;;;9.75;;
40459;SDS011;26164;51.138;16.952;2023-10-13T01:40:26;24.77;;;10.35;;
40459;SDS011;26164;51.138;16.952;2023-10-13T01:42:58;19.88;;;9.80;;
40459;SDS011;26164;51.138;16.952;2023-10-13T01:45:29;17.10;;;9.25;;
40459;SDS011;26164;51.138;16.952;2023-10-13T01:47:55;16.17;;;8.35;;
40459;SDS011;26164;51.138;16.952;2023-10-13T01:50:22;18.65;;;8.35;;
40459;SDS011;26164;51.138;16.952;2023-10-13T01:52:55;17.75;;;9.38;;
40459;SDS011;26164;51.138;16.952;2023-10-13T01:55:40;20.13;;;10.60;;
40459;SDS011;26164;51.138;16.952;2023-10-13T01:58:13;19.00;;;10.13;;
40459;SDS011;26164;51.138;16.952;2023-10-13T02:00:50;24.70;;;10.90;;
40459;SDS011;26164;51.138;16.952;2023-10-13T02:03:31;21.60;;;10.93;;
40459;SDS011;26164;51.138;16.952;2023-10-13T02:05:57;21.27;;;9.52;;
40459;SDS011;26164;51.138;16.952;2023-10-13T02:08:30;19.67;;;10.13;;
40459;SDS011;26164;51.138;16.952;2023-10-13T02:10:57;17.55;;;9.90;;
40459;SDS011;26164;51.138;16.952;2023-10-13T02:13:24;23.48;;;10.43;;
40459;SDS011;26164;51.138;16.952;2023-10-13T02:15:57;20.03;;;10.17;;
40459;SDS011;26164;51.138;16.952;2023-10-13T02:18:30;21.75;;;9.18;;
40459;SDS011;26164;51.138;16.952;2023-10-13T02:21:09;18.60;;;9.82;;
40459;SDS011;26164;51.138;16.952;2023-10-13T02:23:41;16.67;;;9.63;;
40459;SDS011;26164;51.138;16.952;2023-10-13T02:26:28;16.13;;;8.95;;
40459;SDS011;26164;51.138;16.952;2023-10-13T02:29:01;21.85;;;9.48;;
40459;SDS011;26164;51.138;16.952;2023-10-13T02:31:40;20.98;;;9.50;;
40459;SDS011;26164;51.138;16.952;2023-10-13T02:34:26;19.90;;;9.80;;
40459;SDS011;26164;51.138;16.952;2023-10-13T02:36:52;22.08;;;9.95;;
40459;SDS011;26164;51.138;16.952;2023-10-13T02:39:19;20.23;;;10.05;;
40459;SDS011;26164;51.138;16.952;2023-10-13T02:41:53;20.02;;;9.20;;
40459;SDS011;26164;51.138;16.952;2023-10-13T02:44:21;21.85;;;10.30;;
40459;SDS011;26164;51.138;16.952;2023-10-13T02:46:56;18.38;;;9.80;;
40459;SDS011;26164;51.138;16.952;2023-10-13T02:49:24;20.23;;;10.63;;
40459;SDS011;26164;51.138;16.952;2023-10-13T02:51:58;24.35;;;10.88;;
40459;SDS011;26164;51.138;16.952;2023-10-13T02:54:31;21.77;;;12.40;;
40459;SDS011;26164;51.138;16.952;2023-10-13T02:57:03;23.50;;;10.93;;
40459;SDS011;26164;51.138;16.952;2023-10-13T02:59:33;20.02;;;11.02;;
40459;SDS011;26164;51.138;16.952;2023-10-13T03:02:06;21.42;;;12.07;;
40459;SDS011;26164;51.138;16.952;2023-10-13T03:04:56;25.35;;;11.95;;
40459;SDS011;26164;51.138;16.952;2023-10-13T03:07:34;19.67;;;11.48;;
40459;SDS011;26164;51.138;16.952;2023-10-13T03:10:04;22.80;;;11.48;;
40459;SDS011;26164;51.138;16.952;2023-10-13T03:12:37;20.50;;;10.80;;
40459;SDS011;26164;51.138;16.952;2023-10-13T03:15:06;18.80;;;11.80;;
40459;SDS011;26164;51.138;16.952;2023-10-13T03:17:40;19.90;;;11.27;;
40459;SDS011;26164;51.138;16.952;2023-10-13T03:20:10;26.15;;;11.98;;
40459;SDS011;26164;51.138;16.952;2023-10-13T03:22:48;23.60;;;11.32;;
40459;SDS011;26164;51.138;16.952;2023-10-13T03:25:19;23.10;;;11.27;;
40459;SDS011;26164;51.138;16.952;2023-10-13T03:27:54;28.40;;;11.95;;
40459;SDS011;26164;51.138;16.952;2023-10-13T03:30:28;21.30;;;10.73;;
40459;SDS011;26164;51.138;16.952;2023-10-13T03:33:07;21.10;;;11.07;;
40459;SDS011;26164;51.138;16.952;2023-10-13T03:35:51;20.63;;;11.18;;
40459;SDS011;26164;51.138;16.952;2023-10-13T03:38:24;19.73;;;11.07;;
40459;SDS011;26164;51.138;16.952;2023-10-13T03:40:53;24.25;;;11.85;;
40459;SDS011;26164;51.138;16.952;2023-10-13T03:43:27;26.75;;;13.65;;
40459;SDS011;26164;51.138;16.952;2023-10-13T03:45:55;19.50;;;12.10;;
40459;SDS011;26164;51.138;16.952;2023-10-13T03:48:33;20.38;;;12.80;;
40459;SDS011;26164;51.138;16.952;2023-10-13T03:51:08;20.98;;;12.73;;
40459;SDS011;26164;51.138;16.952;2023-10-13T03:53:40;27.70;;;12.50;;
40459;SDS011;26164;51.138;16.952;2023-10-13T03:56:20;22.45;;;11.20;;
40459;SDS011;26164;51.138;16.952;2023-10-13T03:58:53;20.70;;;11.40;;
40459;SDS011;26164;51.138;16.952;2023-10-13T04:01:26;23.98;;;11.98;;
40459;SDS011;26164;51.138;16.952;2023-10-13T04:04:09;23.65;;;11.10;;
40459;SDS011;26164;51.138;16.952;2023-10-13T04:06:41;25.00;;;11.85;;
40459;SDS011;26164;51.138;16.952;2023-10-13T04:09:13;26.40;;;12.77;;
40459;SDS011;26164;51.138;16.952;2023-10-13T04:11:48;22.92;;;12.73;;
40459;SDS011;26164;51.138;16.952;2023-10-13T04:14:35;25.48;;;12.38;;
40459;SDS011;26164;51.138;16.952;2023-10-13T04:17:22;26.10;;;12.95;;
40459;SDS011;26164;51.138;16.952;2023-10-13T04:19:49;22.77;;;11.93;;
40459;SDS011;26164;51.138;16.952;2023-10-13T04:22:36;26.98;;;12.85;;
40459;SDS011;26164;51.138;16.952;2023-10-13T04:25:18;28.10;;;12.60;;
40459;SDS011;26164;51.138;16.952;2023-10-13T04:28:05;27.92;;;12.85;;
40459;SDS011;26164;51.138;16.952;2023-10-13T04:30:44;23.38;;;12.93;;
40459;SDS011;26164;51.138;16.952;2023-10-13T04:33:44;25.80;;;12.20;;
40459;SDS011;26164;51.138;16.952;2023-10-13T04:36:27;24.67;;;12.23;;
40459;SDS011;26164;51.138;16.952;2023-10-13T04:38:58;22.75;;;12.13;;
40459;SDS011;26164;51.138;16.952;2023-10-13T04:44:12;29.95;;;13.02;;
40459;SDS011;26164;51.138;16.952;2023-10-13T04:46:52;24.60;;;12.32;;
40459;SDS011;26164;51.138;16.952;2023-10-13T04:49:40;24.48;;;12.50;;
40459;SDS011;26164;51.138;16.952;2023-10-13T04:52:09;25.45;;;12.55;;
40459;SDS011;26164;51.138;16.952;2023-10-13T04:57:18;25.17;;;11.43;;
40459;SDS011;26164;51.138;16.952;2023-10-13T05:03:53;22.10;;;12.07;;
40459;SDS011;26164;51.138;16.952;2023-10-13T05:06:39;23.40;;;12.27;;
40459;SDS011;26164;51.138;16.952;2023-10-13T05:09:05;25.23;;;12.73;;
40459;SDS011;26164;51.138;16.952;2023-10-13T05:11:52;23.00;;;12.52;;
40459;SDS011;26164;51.138;16.952;2023-10-13T05:14:42;26.80;;;12.38;;
40459;SDS011;26164;51.138;16.952;2023-10-13T05:17:45;24.33;;;11.95;;
40459;SDS011;26164;51.138;16.952;2023-10-13T05:27:07;24.30;;;12.18;;
40459;SDS011;26164;51.138;16.952;2023-10-13T05:30:06;26.58;;;13.13;;
40459;SDS011;26164;51.138;16.952;2023-10-13T05:32:54;23.52;;;12.45;;
40459;SDS011;26164;51.138;16.952;2023-10-13T05:35:40;17.98;;;12.27;;
40459;SDS011;26164;51.138;16.952;2023-10-13T05:42:13;30.30;;;13.40;;
40459;SDS011;26164;51.138;16.952;2023-10-13T05:44:59;27.15;;;12.93;;
40459;SDS011;26164;51.138;16.952;2023-10-13T05:47:43;25.05;;;12.57;;
40459;SDS011;26164;51.138;16.952;2023-10-13T05:50:10;26.40;;;13.38;;
40459;SDS011;26164;51.138;16.952;2023-10-13T05:52:55;30.83;;;13.75;;
40459;SDS011;26164;51.138;16.952;2023-10-13T05:55:25;22.27;;;12.35;;
40459;SDS011;26164;51.138;16.952;2023-10-13T05:58:13;27.27;;;13.55;;
40459;SDS011;26164;51.138;16.952;2023-10-13T06:01:14;23.88;;;13.43;;
40459;SDS011;26164;51.138;16.952;2023-10-13T06:03:58;26.15;;;13.02;;
40459;SDS011;26164;51.138;16.952;2023-10-13T06:06:44;18.95;;;13.00;;
40459;SDS011;26164;51.138;16.952;2023-10-13T06:12:13;28.75;;;13.02;;
40459;SDS011;26164;51.138;16.952;2023-10-13T06:15:14;26.27;;;14.85;;
40459;SDS011;26164;51.138;16.952;2023-10-13T06:18:00;28.45;;;14.88;;
40459;SDS011;26164;51.138;16.952;2023-10-13T06:20:47;25.48;;;16.33;;
40459;SDS011;26164;51.138;16.952;2023-10-13T06:23:34;26.30;;;16.25;;
40459;SDS011;26164;51.138;16.952;2023-10-13T06:26:21;28.50;;;16.40;;
40459;SDS011;26164;51.138;16.952;2023-10-13T06:29:06;30.42;;;15.63;;
40459;SDS011;26164;51.138;16.952;2023-10-13T06:31:34;29.83;;;16.17;;
40459;SDS011;26164;51.138;16.952;2023-10-13T06:34:03;32.50;;;17.23;;
40459;SDS011;26164;51.138;16.952;2023-10-13T06:36:29;33.80;;;16.40;;
40459;SDS011;26164;51.138;16.952;2023-10-13T06:38:55;33.80;;;18.45;;
40459;SDS011;26164;51.138;16.952;2023-10-13T06:41:23;32.35;;;18.30;;
40459;SDS011;26164;51.138;16.952;2023-10-13T06:44:08;27.33;;;16.80;;
40459;SDS011;26164;51.138;16.952;2023-10-13T06:46:40;33.60;;;16.08;;
40459;SDS011;26164;51.138;16.952;2023-10-13T06:49:07;26.38;;;16.17;;
40459;SDS011;26164;51.138;16.952;2023-10-13T06:51:46;26.85;;;15.48;;
40459;SDS011;26164;51.138;16.952;2023-10-13T06:54:14;27.65;;;15.18;;
40459;SDS011;26164;51.138;16.952;2023-10-13T06:56:46;24.75;;;15.15;;
40459;SDS011;26164;51.138;16.952;2023-10-13T06:59:12;28.38;;;14.52;;
40459;SDS011;26164;51.138;16.952;2023-10-13T07:01:39;28.85;;;14.90;;
40459;SDS011;26164;51.138;16.952;2023-10-13T07:04:08;26.02;;;14.50;;
40459;SDS011;26164;51.138;16.952;2023-10-13T07:06:52;23.42;;;13.63;;
40459;SDS011;26164;51.138;16.952;2023-10-13T07:09:20;20.25;;;12.52;;
40459;SDS011;26164;51.138;16.952;2023-10-13T07:12:07;25.55;;;13.55;;
40459;SDS011;26164;51.138;16.952;2023-10-13T07:14:46;22.65;;;13.00;;
40459;SDS011;26164;51.138;16.952;2023-10-13T07:17:25;24.67;;;11.88;;
40459;SDS011;26164;51.138;16.952;2023-10-13T07:19:52;22.77;;;12.25;;
40459;SDS011;26164;51.138;16.952;2023-10-13T07:22:29;28.38;;;12.25;;
40459;SDS011;26164;51.138;16.952;2023-10-13T07:25:13;25.88;;;13.05;;
40459;SDS011;26164;51.138;16.952;2023-10-13T07:27:55;24.77;;;12.50;;
40459;SDS011;26164;51.138;16.952;2023-10-13T07:30:24;24.00;;;12.43;;
40459;SDS011;26164;51.138;16.952;2023-10-13T07:32:57;27.38;;;12.85;;
40459;SDS011;26164;51.138;16.952;2023-10-13T07:35:32;23.35;;;12.15;;
40459;SDS011;26164;51.138;16.952;2023-10-13T07:38:10;28.13;;;13.02;;
40459;SDS011;26164;51.138;16.952;2023-10-13T07:40:45;24.15;;;11.77;;
40459;SDS011;26164;51.138;16.952;2023-10-13T07:43:16;23.00;;;12.40;;
40459;SDS011;26164;51.138;16.952;2023-10-13T07:45:49;22.35;;;11.48;;
40459;SDS011;26164;51.138;16.952;2023-10-13T07:48:27;20.20;;;10.82;;
40459;SDS011;26164;51.138;16.952;2023-10-13T07:51:02;20.15;;;11.80;;
40459;SDS011;26164;51.138;16.952;2023-10-13T07:53:39;23.55;;;11.80;;
40459;SDS011;26164;51.138;16.952;2023-10-13T07:56:21;18.42;;;10.35;;
40459;SDS011;26164;51.138;16.952;2023-10-13T07:59:48;18.20;;;11.50;;
40459;SDS011;26164;51.138;16.952;2023-10-13T08:02:30;22.90;;;13.25;;
40459;SDS011;26164;51.138;16.952;2023-10-13T08:05:15;18.65;;;11.10;;
40459;SDS011;26164;51.138;16.952;2023-10-13T08:08:01;26.13;;;13.25;;
40459;SDS011;26164;51.138;16.952;2023-10-13T08:14:23;19.15;;;10.50;;
40459;SDS011;26164;51.138;16.952;2023-10-13T08:16:59;16.73;;;9.55;;
40459;SDS011;26164;51.138;16.952;2023-10-13T08:19:29;22.70;;;9.38;;
40459;SDS011;26164;51.138;16.952;2023-10-13T08:22:08;15.00;;;9.20;;
40459;SDS011;26164;51.138;16.952;2023-10-13T08:24:44;14.15;;;8.35;;
40459;SDS011;26164;51.138;16.952;2023-10-13T09:10:42;12.20;;;6.40;;
40459;SDS011;26164;51.138;16.952;2023-10-13T09:13:38;14.07;;;6.95;;
40459;SDS011;26164;51.138;16.952;2023-10-13T09:16:14;11.48;;;6.40;;
40459;SDS011;26164;51.138;16.952;2023-10-13T09:19:07;9.50;;;5.95;;
40459;SDS011;26164;51.138;16.952;2023-10-13T09:21:40;9.30;;;5.53;;
40459;SDS011;26164;51.138;16.952;2023-10-13T09:24:13;13.93;;;5.70;;
40459;SDS011;26164;51.138;16.952;2023-10-13T09:27:02;14.30;;;5.30;;
40459;SDS011;26164;51.138;16.952;2023-10-13T09:29:39;10.48;;;6.03;;
40459;SDS011;26164;51.138;16.952;2023-10-13T09:32:08;10.50;;;5.93;;
40459;SDS011;26164;51.138;16.952;2023-10-13T09:34:37;11.85;;;4.90;;
40459;SDS011;26164;51.138;16.952;2023-10-13T09:37:06;11.25;;;5.80;;
40459;SDS011;26164;51.138;16.952;2023-10-13T09:39:36;11.63;;;5.03;;
40459;SDS011;26164;51.138;16.952;2023-10-13T09:42:16;13.20;;;5.22;;
40459;SDS011;26164;51.138;16.952;2023-10-13T09:44:44;8.52;;;4.30;;
40459;SDS011;26164;51.138;16.952;2023-10-13T09:47:22;10.43;;;4.88;;
40459;SDS011;26164;51.138;16.952;2023-10-13T09:50:07;9.68;;;5.10;;
40459;SDS011;26164;51.138;16.952;2023-10-13T09:52:43;8.20;;;4.95;;
40459;SDS011;26164;51.138;16.952;2023-10-13T09:55:15;12.73;;;4.78;;
40459;SDS011;26164;51.138;16.952;2023-10-13T09:57:51;9.30;;;5.53;;
40459;SDS011;26164;51.138;16.952;2023-10-13T10:00:27;7.25;;;4.28;;
40459;SDS011;26164;51.138;16.952;2023-10-13T10:03:15;9.50;;;5.07;;
40459;SDS011;26164;51.138;16.952;2023-10-13T10:06:23;5.85;;;4.18;;
40459;SDS011;26164;51.138;16.952;2023-10-13T10:09:08;8.20;;;4.78;;
40459;SDS011;26164;51.138;16.952;2023-10-13T10:11:58;7.57;;;4.55;;
40459;SDS011;26164;51.138;16.952;2023-10-13T10:17:41;12.57;;;4.65;;
40459;SDS011;26164;51.138;16.952;2023-10-13T10:20:09;8.52;;;4.40;;
40459;SDS011;26164;51.138;16.952;2023-10-13T10:22:43;12.23;;;4.70;;
40459;SDS011;26164;51.138;16.952;2023-10-13T10:25:14;6.93;;;4.65;;
40459;SDS011;26164;51.138;16.952;2023-10-13T10:27:56;7.55;;;4.00;;
40459;SDS011;26164;51.138;16.952;2023-10-13T10:30:27;7.70;;;4.00;;
40459;SDS011;26164;51.138;16.952;2023-10-13T10:32:57;7.30;;;3.90;;
40459;SDS011;26164;51.138;16.952;2023-10-13T10:35:46;7.07;;;4.20;;
40459;SDS011;26164;51.138;16.952;2023-10-13T10:38:24;8.80;;;3.65;;
40459;SDS011;26164;51.138;16.952;2023-10-13T10:41:00;7.63;;;4.13;;
40459;SDS011;26164;51.138;16.952;2023-10-13T10:43:30;5.43;;;3.72;;
40459;SDS011;26164;51.138;16.952;2023-10-13T10:46:14;9.02;;;4.18;;
40459;SDS011;26164;51.138;16.952;2023-10-13T10:48:43;5.38;;;3.75;;
40459;SDS011;26164;51.138;16.952;2023-10-13T10:51:17;9.63;;;4.20;;
40459;SDS011;26164;51.138;16.952;2023-10-13T10:53:45;9.05;;;4.32;;
40459;SDS011;26164;51.138;16.952;2023-10-13T10:56:14;7.32;;;4.38;;
40459;SDS011;26164;51.138;16.952;2023-10-13T10:59:06;6.97;;;4.35;;
40459;SDS011;26164;51.138;16.952;2023-10-13T11:01:46;5.07;;;3.60;;
40459;SDS011;26164;51.138;16.952;2023-10-13T11:04:15;14.70;;;4.32;;
40459;SDS011;26164;51.138;16.952;2023-10-13T11:06:55;6.00;;;4.22;;
40459;SDS011;26164;51.138;16.952;2023-10-13T11:09:25;7.88;;;4.07;;
40459;SDS011;26164;51.138;16.952;2023-10-13T11:12:12;8.35;;;3.75;;
40459;SDS011;26164;51.138;16.952;2023-10-13T11:14:59;5.78;;;3.72;;
40459;SDS011;26164;51.138;16.952;2023-10-13T11:17:53;4.28;;;3.30;;
40459;SDS011;26164;51.138;16.952;2023-10-13T11:20:24;7.00;;;3.72;;
40459;SDS011;26164;51.138;16.952;2023-10-13T11:23:11;6.68;;;3.60;;
40459;SDS011;26164;51.138;16.952;2023-10-13T11:25:41;5.70;;;3.40;;
40459;SDS011;26164;51.138;16.952;2023-10-13T11:28:14;5.30;;;3.35;;
40459;SDS011;26164;51.138;16.952;2023-10-13T11:30:46;6.40;;;3.67;;
40459;SDS011;26164;51.138;16.952;2023-10-13T11:33:18;6.90;;;3.33;;
40459;SDS011;26164;51.138;16.952;2023-10-13T11:35:52;8.48;;;3.35;;
40459;SDS011;26164;51.138;16.952;2023-10-13T11:38:30;5.90;;;2.78;;
40459;SDS011;26164;51.138;16.952;2023-10-13T11:41:08;7.55;;;3.15;;
40459;SDS011;26164;51.138;16.952;2023-10-13T11:46:16;6.13;;;2.55;;
40459;SDS011;26164;51.138;16.952;2023-10-13T11:49:05;8.65;;;2.97;;
40459;SDS011;26164;51.138;16.952;2023-10-13T11:51:52;10.88;;;2.63;;
40459;SDS011;26164;51.138;16.952;2023-10-13T11:54:28;5.63;;;2.60;;
40459;SDS011;26164;51.138;16.952;2023-10-13T11:56:54;12.93;;;2.65;;
40459;SDS011;26164;51.138;16.952;2023-10-13T11:59:27;7.22;;;2.55;;
40459;SDS011;26164;51.138;16.952;2023-10-13T12:01:53;4.75;;;2.35;;
40459;SDS011;26164;51.138;16.952;2023-10-13T12:04:39;7.28;;;2.50;;
40459;SDS011;26164;51.138;16.952;2023-10-13T12:07:15;9.75;;;2.53;;
40459;SDS011;26164;51.138;16.952;2023-10-13T12:10:06;10.88;;;2.35;;
40459;SDS011;26164;51.138;16.952;2023-10-13T12:12:42;5.18;;;2.70;;
40459;SDS011;26164;51.138;16.952;2023-10-13T12:15:27;6.63;;;2.50;;
40459;SDS011;26164;51.138;16.952;2023-10-13T12:18:27;5.45;;;2.00;;
40459;SDS011;26164;51.138;16.952;2023-10-13T12:21:15;6.18;;;2.40;;
40459;SDS011;26164;51.138;16.952;2023-10-13T12:24:16;7.65;;;2.30;;
40459;SDS011;26164;51.138;16.952;2023-10-13T12:26:57;9.32;;;2.40;;
40459;SDS011;26164;51.138;16.952;2023-10-13T12:29:24;5.32;;;1.90;;
40459;SDS011;26164;51.138;16.952;2023-10-13T12:31:56;7.97;;;2.60;;
40459;SDS011;26164;51.138;16.952;2023-10-13T12:34:41;7.03;;;2.20;;
40459;SDS011;26164;51.138;16.952;2023-10-13T12:37:31;5.18;;;2.35;;
40459;SDS011;26164;51.138;16.952;2023-10-13T12:40:02;4.72;;;2.42;;
40459;SDS011;26164;51.138;16.952;2023-10-13T12:42:54;10.35;;;2.60;;
40459;SDS011;26164;51.138;16.952;2023-10-13T12:45:42;6.20;;;2.45;;
40459;SDS011;26164;51.138;16.952;2023-10-13T12:48:40;7.28;;;2.90;;
40459;SDS011;26164;51.138;16.952;2023-10-13T12:51:54;5.50;;;2.60;;
40459;SDS011;26164;51.138;16.952;2023-10-13T12:54:25;9.20;;;3.28;;
40459;SDS011;26164;51.138;16.952;2023-10-13T12:57:06;4.63;;;2.45;;
40459;SDS011;26164;51.138;16.952;2023-10-13T12:59:42;6.80;;;2.83;;
40459;SDS011;26164;51.138;16.952;2023-10-13T13:02:08;4.82;;;2.80;;
40459;SDS011;26164;51.138;16.952;2023-10-13T13:04:43;7.28;;;2.95;;
40459;SDS011;26164;51.138;16.952;2023-10-13T13:07:18;7.57;;;2.60;;
40459;SDS011;26164;51.138;16.952;2023-10-13T13:09:47;6.68;;;2.80;;
40459;SDS011;26164;51.138;16.952;2023-10-13T13:12:14;9.77;;;2.90;;
40459;SDS011;26164;51.138;16.952;2023-10-13T13:15:07;5.85;;;2.58;;
40459;SDS011;26164;51.138;16.952;2023-10-13T13:17:45;10.55;;;2.53;;
40459;SDS011;26164;51.138;16.952;2023-10-13T13:20:14;9.80;;;3.15;;
40459;SDS011;26164;51.138;16.952;2023-10-13T13:23:05;7.20;;;2.70;;
40459;SDS011;26164;51.138;16.952;2023-10-13T13:28:15;10.18;;;2.83;;
40459;SDS011;26164;51.138;16.952;2023-10-13T13:31:09;9.95;;;3.25;;
40459;SDS011;26164;51.138;16.952;2023-10-13T13:33:48;6.60;;;2.58;;
40459;SDS011;26164;51.138;16.952;2023-10-13T13:36:20;5.15;;;2.83;;
40459;SDS011;26164;51.138;16.952;2023-10-13T13:38:56;9.07;;;2.90;;
40459;SDS011;26164;51.138;16.952;2023-10-13T13:41:25;7.43;;;3.00;;
40459;SDS011;26164;51.138;16.952;2023-10-13T13:44:24;9.30;;;2.75;;
40459;SDS011;26164;51.138;16.952;2023-10-13T13:47:37;6.90;;;2.97;;
40459;SDS011;26164;51.138;16.952;2023-10-13T13:50:03;8.88;;;3.05;;
40459;SDS011;26164;51.138;16.952;2023-10-13T13:52:42;5.00;;;2.50;;
40459;SDS011;26164;51.138;16.952;2023-10-13T13:55:13;7.63;;;2.85;;
40459;SDS011;26164;51.138;16.952;2023-10-13T13:57:43;7.97;;;2.75;;
40459;SDS011;26164;51.138;16.952;2023-10-13T14:00:12;15.80;;;2.60;;
40459;SDS011;26164;51.138;16.952;2023-10-13T14:02:46;8.97;;;2.70;;
40459;SDS011;26164;51.138;16.952;2023-10-13T14:05:28;11.63;;;3.13;;
40459;SDS011;26164;51.138;16.952;2023-10-13T14:08:19;9.07;;;2.50;;
40459;SDS011;26164;51.138;16.952;2023-10-13T14:10:48;10.32;;;2.97;;
40459;SDS011;26164;51.138;16.952;2023-10-13T14:13:49;5.43;;;2.60;;
40459;SDS011;26164;51.138;16.952;2023-10-13T14:16:32;8.10;;;2.50;;
40459;SDS011;26164;51.138;16.952;2023-10-13T14:19:05;7.95;;;3.22;;
40459;SDS011;26164;51.138;16.952;2023-10-13T14:21:34;5.50;;;2.65;;
40459;SDS011;26164;51.138;16.952;2023-10-13T14:24:00;11.00;;;3.10;;
40459;SDS011;26164;51.138;16.952;2023-10-13T14:26:29;9.43;;;2.92;;
40459;SDS011;26164;51.138;16.952;2023-10-13T14:28:58;7.68;;;3.20;;
40459;SDS011;26164;51.138;16.952;2023-10-13T14:31:42;9.73;;;3.20;;
40459;SDS011;26164;51.138;16.952;2023-10-13T14:34:09;21.55;;;3.97;;
40459;SDS011;26164;51.138;16.952;2023-10-13T14:36:38;8.07;;;3.25;;
40459;SDS011;26164;51.138;16.952;2023-10-13T14:39:07;10.52;;;3.10;;
40459;SDS011;26164;51.138;16.952;2023-10-13T14:44:56;9.23;;;3.17;;
40459;SDS011;26164;51.138;16.952;2023-10-13T14:47:39;10.13;;;3.22;;
40459;SDS011;26164;51.138;16.952;2023-10-13T14:50:18;13.38;;;4.22;;
40459;SDS011;26164;51.138;16.952;2023-10-13T14:52:59;13.95;;;3.80;;
40459;SDS011;26164;51.138;16.952;2023-10-13T14:55:54;9.40;;;3.63;;
40459;SDS011;26164;51.138;16.952;2023-10-13T14:58:30;13.25;;;3.50;;
40459;SDS011;26164;51.138;16.952;2023-10-13T15:01:01;13.73;;;3.80;;
40459;SDS011;26164;51.138;16.952;2023-10-13T15:03:43;7.50;;;3.20;;
40459;SDS011;26164;51.138;16.952;2023-10-13T15:06:18;10.88;;;3.67;;
40459;SDS011;26164;51.138;16.952;2023-10-13T15:08:46;10.57;;;3.28;;
40459;SDS011;26164;51.138;16.952;2023-10-13T15:11:19;10.43;;;3.77;;
40459;SDS011;26164;51.138;16.952;2023-10-13T15:13:55;8.85;;;3.33;;
40459;SDS011;26164;51.138;16.952;2023-10-13T15:19:08;10.18;;;3.78;;
40459;SDS011;26164;51.138;16.952;2023-10-13T15:21:37;12.43;;;3.42;;
40459;SDS011;26164;51.138;16.952;2023-10-13T15:24:11;10.57;;;3.45;;
40459;SDS011;26164;51.138;16.952;2023-10-13T15:26:48;12.73;;;3.92;;
40459;SDS011;26164;51.138;16.952;2023-10-13T15:31:44;10.48;;;2.95;;
40459;SDS011;26164;51.138;16.952;2023-10-13T15:34:40;11.00;;;3.10;;
40459;SDS011;26164;51.138;16.952;2023-10-13T15:37:11;11.27;;;3.22;;
40459;SDS011;26164;51.138;16.952;2023-10-13T15:39:38;11.15;;;3.75;;
40459;SDS011;26164;51.138;16.952;2023-10-13T15:42:06;11.38;;;3.53;;
40459;SDS011;26164;51.138;16.952;2023-10-13T15:44:36;9.13;;;3.40;;
40459;SDS011;26164;51.138;16.952;2023-10-13T15:47:15;9.68;;;3.30;;
40459;SDS011;26164;51.138;16.952;2023-10-13T15:49:42;8.55;;;3.50;;
40459;SDS011;26164;51.138;16.952;2023-10-13T15:52:08;7.93;;;3.20;;
40459;SDS011;26164;51.138;16.952;2023-10-13T15:54:50;10.00;;;3.90;;
40459;SDS011;26164;51.138;16.952;2023-10-13T15:57:17;10.32;;;3.65;;
40459;SDS011;26164;51.138;16.952;2023-10-13T15:59:46;11.27;;;4.00;;
40459;SDS011;26164;51.138;16.952;2023-10-13T16:02:28;9.75;;;3.95;;
40459;SDS011;26164;51.138;16.952;2023-10-13T16:05:10;8.82;;;3.45;;
40459;SDS011;26164;51.138;16.952;2023-10-13T16:07:46;11.90;;;3.63;;
40459;SDS011;26164;51.138;16.952;2023-10-13T16:13:03;9.63;;;3.45;;
40459;SDS011;26164;51.138;16.952;2023-10-13T16:15:37;9.25;;;3.78;;
40459;SDS011;26164;51.138;16.952;2023-10-13T16:18:25;12.48;;;4.10;;
40459;SDS011;26164;51.138;16.952;2023-10-13T16:20:54;13.23;;;5.25;;
40459;SDS011;26164;51.138;16.952;2023-10-13T16:23:21;11.50;;;3.42;;
40459;SDS011;26164;51.138;16.952;2023-10-13T16:25:49;17.23;;;4.60;;
40459;SDS011;26164;51.138;16.952;2023-10-13T16:28:17;15.07;;;4.57;;
40459;SDS011;26164;51.138;16.952;2023-10-13T16:30:48;22.25;;;4.60;;
40459;SDS011;26164;51.138;16.952;2023-10-13T16:33:16;17.08;;;4.55;;
40459;SDS011;26164;51.138;16.952;2023-10-13T16:35:58;12.98;;;3.92;;
40459;SDS011;26164;51.138;16.952;2023-10-13T16:38:37;15.70;;;4.78;;
40459;SDS011;26164;51.138;16.952;2023-10-13T16:41:17;13.38;;;4.47;;
40459;SDS011;26164;51.138;16.952;2023-10-13T16:43:59;15.13;;;4.63;;
40459;SDS011;26164;51.138;16.952;2023-10-13T16:46:43;11.85;;;3.95;;